Time;durP1;ratioP1;P1;durP2;ratioP2;P2;SDS_P1;SDS_P2;PMS_P1;PMS_P2;Temp;Humidity;BMP_temperature;BMP_pressure;BME280_temperature;BME280_humidity;BME280_pressure;Samples;Min_cycle;Max_cycle;Signal;HPM_P1;HPM_P2
2021/06/15 00:01:40;;;;;;;20.77;16.80;;;;;;;;;;5092491;28;20429;-69
2021/06/15 00:04:06;;;;;;;17.67;15.60;;;;;;;;;;5092252;28;20415;-73
2021/06/15 00:06:32;;;;;;;17.63;15.90;;;;;;;;;;5092453;28;20787;-74
2021/06/15 00:08:58;;;;;;;19.93;17.10;;;;;;;;;;5092736;28;20424;-75
2021/06/15 00:11:24;;;;;;;18.80;16.27;;;;;;;;;;5092829;28;20429;-71
2021/06/15 00:13:51;;;;;;;20.07;16.20;;;;;;;;;;5092936;28;20759;-73
2021/06/15 00:16:17;;;;;;;17.23;14.30;;;;;;;;;;5096666;28;20458;-71
2021/06/15 00:18:43;;;;;;;19.47;15.53;;;;;;;;;;5096046;28;20894;-73
2021/06/15 00:21:09;;;;;;;18.97;14.77;;;;;;;;;;5096141;28;20947;-73
2021/06/15 00:23:35;;;;;;;18.77;14.53;;;;;;;;;;5096060;28;20417;-72
2021/06/15 00:26:01;;;;;;;17.73;15.03;;;;;;;;;;5096076;28;20416;-74
2021/06/15 00:28:27;;;;;;;19.57;15.77;;;;;;;;;;5103903;28;20472;-70
2021/06/15 00:30:53;;;;;;;19.40;17.40;;;;;;;;;;5100401;28;20408;-72
2021/06/15 00:33:19;;;;;;;20.63;15.27;;;;;;;;;;5104557;28;20419;-73
2021/06/15 00:35:45;;;;;;;16.60;14.90;;;;;;;;;;5116627;28;20407;-73
2021/06/15 00:38:11;;;;;;;20.47;14.83;;;;;;;;;;5116158;28;20777;-75
2021/06/15 00:40:37;;;;;;;16.17;14.60;;;;;;;;;;5110657;28;20419;-74
2021/06/15 00:43:04;;;;;;;17.47;15.07;;;;;;;;;;5116044;28;20777;-76
2021/06/15 00:45:32;;;;;;;18.40;14.40;;;;;;;;;;5116201;28;20416;-73
2021/06/15 00:47:59;;;;;;;17.50;14.70;;;;;;;;;;5115599;28;20451;-75
2021/06/15 00:50:26;;;;;;;18.37;14.10;;;;;;;;;;5115982;28;20416;-71
2021/06/15 00:52:53;;;;;;;15.63;14.03;;;;;;;;;;5115557;28;20431;-73
2021/06/15 00:55:20;;;;;;;15.17;12.83;;;;;;;;;;5115761;28;20411;-70
2021/06/15 00:57:46;;;;;;;18.90;13.77;;;;;;;;;;5114284;28;20459;-73
2021/06/15 01:00:12;;;;;;;18.13;13.80;;;;;;;;;;5115888;27;20518;-71
2021/06/15 01:02:38;;;;;;;17.77;14.47;;;;;;;;;;5105689;28;20436;-74
2021/06/15 01:05:06;;;;;;;15.07;13.50;;;;;;;;;;5094960;28;20786;-75
2021/06/15 01:07:35;;;;;;;20.63;13.57;;;;;;;;;;5094796;28;20513;-70
2021/06/15 01:10:09;;;;;;;19.27;14.40;;;;;;;;;;5094882;28;20766;-73
2021/06/15 01:12:35;;;;;;;15.10;12.50;;;;;;;;;;5095147;28;20477;-72
2021/06/15 01:15:06;;;;;;;18.60;12.73;;;;;;;;;;5094975;28;20470;-73
2021/06/15 01:17:35;;;;;;;14.63;11.90;;;;;;;;;;5095016;28;20411;-72
2021/06/15 01:20:20;;;;;;;15.20;12.07;;;;;;;;;;5094763;28;20435;-71
2021/06/15 01:22:46;;;;;;;22.87;12.67;;;;;;;;;;5094799;28;20432;-74
2021/06/15 01:25:22;;;;;;;14.87;12.93;;;;;;;;;;5094822;28;20756;-74
2021/06/15 01:27:51;;;;;;;16.33;12.30;;;;;;;;;;5096870;28;20498;-71
2021/06/15 01:30:18;;;;;;;17.37;12.00;;;;;;;;;;5105211;28;20404;-74
2021/06/15 01:32:56;;;;;;;14.83;11.03;;;;;;;;;;5098206;28;20774;-72
2021/06/15 01:35:23;;;;;;;16.40;10.90;;;;;;;;;;5115103;28;20404;-73
2021/06/15 01:37:53;;;;;;;13.13;10.57;;;;;;;;;;5115197;28;20416;-75
2021/06/15 01:40:22;;;;;;;15.30;11.27;;;;;;;;;;5109828;28;20420;-72
2021/06/15 01:42:52;;;;;;;11.47;9.43;;;;;;;;;;5094467;28;20496;-74
2021/06/15 01:45:21;;;;;;;15.20;10.20;;;;;;;;;;5094561;28;20444;-73
2021/06/15 01:47:57;;;;;;;13.87;10.67;;;;;;;;;;5094470;28;20529;-74
2021/06/15 01:50:31;;;;;;;13.40;9.70;;;;;;;;;;5094198;28;20459;-74
2021/06/15 01:52:57;;;;;;;11.60;9.27;;;;;;;;;;5094619;28;20430;-74
2021/06/15 01:55:24;;;;;;;12.70;10.10;;;;;;;;;;5094452;28;20419;-73
2021/06/15 01:57:50;;;;;;;14.40;10.33;;;;;;;;;;5094103;28;20416;-75
2021/06/15 02:00:17;;;;;;;14.80;9.50;;;;;;;;;;5094628;28;20416;-73
2021/06/15 02:02:43;;;;;;;13.80;9.70;;;;;;;;;;5094265;28;20438;-74
2021/06/15 02:05:11;;;;;;;15.47;9.57;;;;;;;;;;5094008;28;20464;-73
2021/06/15 02:07:42;;;;;;;17.93;10.07;;;;;;;;;;5093868;28;20474;-73
2021/06/15 02:10:10;;;;;;;17.57;10.17;;;;;;;;;;5093971;28;20415;-73
2021/06/15 02:12:40;;;;;;;13.77;8.67;;;;;;;;;;5093757;28;20423;-75
2021/06/15 02:15:07;;;;;;;11.97;8.60;;;;;;;;;;5093746;28;20414;-74
2021/06/15 02:17:34;;;;;;;10.87;7.93;;;;;;;;;;5094112;28;20882;-75
2021/06/15 02:20:02;;;;;;;9.60;8.60;;;;;;;;;;5093941;28;20418;-74
2021/06/15 02:22:29;;;;;;;13.73;8.77;;;;;;;;;;5093969;28;20471;-72
2021/06/15 02:24:56;;;;;;;13.43;8.60;;;;;;;;;;5093632;28;20833;-75
2021/06/15 02:27:23;;;;;;;13.10;7.90;;;;;;;;;;5093791;28;20814;-75
2021/06/15 02:29:52;;;;;;;14.40;8.80;;;;;;;;;;5106554;28;20416;-71
2021/06/15 02:32:21;;;;;;;12.90;8.93;;;;;;;;;;5093864;28;20856;-74
2021/06/15 02:34:49;;;;;;;13.90;8.73;;;;;;;;;;5100500;28;20406;-71
2021/06/15 02:37:17;;;;;;;12.83;8.47;;;;;;;;;;5113481;28;20414;-75
2021/06/15 02:39:43;;;;;;;11.07;7.90;;;;;;;;;;5112246;28;20411;-71
2021/06/15 02:42:11;;;;;;;12.83;8.03;;;;;;;;;;5110028;28;20840;-74
2021/06/15 02:44:39;;;;;;;12.80;8.50;;;;;;;;;;5113801;28;20404;-72
2021/06/15 02:47:06;;;;;;;13.47;6.63;;;;;;;;;;5113702;28;20489;-71
2021/06/15 02:49:33;;;;;;;13.80;6.50;;;;;;;;;;5113612;28;20421;-75
2021/06/15 02:52:08;;;;;;;6.10;5.17;;;;;;;;;;5113973;28;20426;-73
2021/06/15 02:54:41;;;;;;;10.10;5.87;;;;;;;;;;5113619;28;20418;-72
2021/06/15 02:57:07;;;;;;;8.90;5.70;;;;;;;;;;5113473;28;20572;-75
2021/06/15 02:59:33;;;;;;;10.70;5.50;;;;;;;;;;5112297;28;20440;-74
2021/06/15 03:01:59;;;;;;;9.83;5.80;;;;;;;;;;5113738;28;20790;-72
2021/06/15 03:04:25;;;;;;;10.70;5.50;;;;;;;;;;5112300;28;20425;-73
2021/06/15 03:06:51;;;;;;;13.73;5.10;;;;;;;;;;5113554;28;20461;-73
2021/06/15 03:09:18;;;;;;;9.50;4.87;;;;;;;;;;5113391;28;20402;-75
2021/06/15 03:11:50;;;;;;;11.90;4.93;;;;;;;;;;5112383;28;20491;-75
2021/06/15 03:14:22;;;;;;;8.60;4.67;;;;;;;;;;5093068;28;20457;-71
2021/06/15 03:16:49;;;;;;;10.33;5.00;;;;;;;;;;5093107;28;20502;-75
2021/06/15 03:19:22;;;;;;;6.10;4.73;;;;;;;;;;5093064;28;20415;-75
2021/06/15 03:21:50;;;;;;;11.80;5.60;;;;;;;;;;5100231;28;20789;-73
2021/06/15 03:24:24;;;;;;;7.80;5.10;;;;;;;;;;5113126;28;20410;-72
2021/06/15 03:26:58;;;;;;;9.90;4.67;;;;;;;;;;5113507;28;20514;-71
2021/06/15 03:29:25;;;;;;;7.10;4.30;;;;;;;;;;5110429;28;20412;-74
2021/06/15 03:31:53;;;;;;;7.47;4.83;;;;;;;;;;5093075;28;20569;-71
2021/06/15 03:34:25;;;;;;;10.67;4.63;;;;;;;;;;5109873;28;20414;-75
2021/06/15 03:36:52;;;;;;;10.07;4.23;;;;;;;;;;5113477;28;20418;-74
2021/06/15 03:39:19;;;;;;;7.00;4.47;;;;;;;;;;5112938;28;20416;-71
2021/06/15 03:41:45;;;;;;;9.07;4.77;;;;;;;;;;5107801;28;21003;-75
2021/06/15 03:44:13;;;;;;;8.13;4.40;;;;;;;;;;5113155;28;20924;-73
2021/06/15 03:46:40;;;;;;;9.03;4.77;;;;;;;;;;5113220;28;20460;-73
2021/06/15 03:49:09;;;;;;;12.00;4.60;;;;;;;;;;5113986;28;20410;-70
2021/06/15 03:51:42;;;;;;;9.27;4.03;;;;;;;;;;5116761;28;20459;-70
2021/06/15 03:54:10;;;;;;;9.90;4.53;;;;;;;;;;5115678;28;20442;-74
2021/06/15 03:56:36;;;;;;;10.23;4.20;;;;;;;;;;5117167;28;20437;-75
2021/06/15 03:59:05;;;;;;;7.30;3.90;;;;;;;;;;5117259;28;20430;-72
2021/06/15 04:01:33;;;;;;;13.83;4.97;;;;;;;;;;5116578;28;20479;-75
2021/06/15 04:04:02;;;;;;;7.97;5.33;;;;;;;;;;5117389;28;20417;-71
2021/06/15 04:06:28;;;;;;;9.27;4.47;;;;;;;;;;5116611;28;20946;-77
2021/06/15 04:09:01;;;;;;;12.60;4.63;;;;;;;;;;5116869;28;20482;-71
2021/06/15 04:11:28;;;;;;;6.97;3.60;;;;;;;;;;5114300;27;20469;-72
2021/06/15 04:13:54;;;;;;;9.70;4.00;;;;;;;;;;5105666;28;20416;-72
2021/06/15 04:16:21;;;;;;;7.50;4.07;;;;;;;;;;5096248;28;20496;-73
2021/06/15 04:18:48;;;;;;;10.03;4.50;;;;;;;;;;5096719;28;20414;-74
2021/06/15 04:21:17;;;;;;;8.90;4.20;;;;;;;;;;5094677;28;20499;-71
2021/06/15 04:23:53;;;;;;;11.23;5.03;;;;;;;;;;5095065;28;20424;-75
2021/06/15 04:26:22;;;;;;;5.13;3.63;;;;;;;;;;5095775;28;20418;-71
2021/06/15 04:28:48;;;;;;;9.90;4.30;;;;;;;;;;5106901;28;20800;-75
2021/06/15 04:31:15;;;;;;;9.17;3.80;;;;;;;;;;5097460;28;20511;-71
2021/06/15 04:33:44;;;;;;;11.50;4.30;;;;;;;;;;5108062;28;20409;-72
2021/06/15 04:36:11;;;;;;;7.50;3.30;;;;;;;;;;5116105;28;20410;-72
2021/06/15 04:38:43;;;;;;;7.70;3.70;;;;;;;;;;5116085;28;20461;-72
2021/06/15 04:41:13;;;;;;;9.13;3.83;;;;;;;;;;5110535;28;20438;-72
2021/06/15 04:43:45;;;;;;;9.20;4.20;;;;;;;;;;5116022;28;20906;-74
2021/06/15 04:46:20;;;;;;;8.00;4.10;;;;;;;;;;5116106;28;20416;-73
2021/06/15 04:48:48;;;;;;;15.93;5.17;;;;;;;;;;5116026;28;20431;-73
2021/06/15 04:51:18;;;;;;;7.03;3.70;;;;;;;;;;5115944;27;20516;-75
2021/06/15 04:53:44;;;;;;;12.23;5.93;;;;;;;;;;5115774;28;20747;-71
2021/06/15 04:56:11;;;;;;;8.03;3.80;;;;;;;;;;5115810;28;20408;-70
2021/06/15 04:58:38;;;;;;;7.73;3.57;;;;;;;;;;5115994;28;20409;-73
2021/06/15 05:01:04;;;;;;;9.90;4.13;;;;;;;;;;5115470;28;20766;-73
2021/06/15 05:03:31;;;;;;;9.00;3.73;;;;;;;;;;5115863;28;20411;-75
2021/06/15 05:06:07;;;;;;;6.90;4.20;;;;;;;;;;5115561;27;20406;-73
2021/06/15 05:08:35;;;;;;;6.10;3.70;;;;;;;;;;5115459;28;20483;-72
2021/06/15 05:11:02;;;;;;;7.23;4.00;;;;;;;;;;5115706;28;20572;-73
2021/06/15 05:13:30;;;;;;;6.33;3.47;;;;;;;;;;5104091;28;20487;-73
2021/06/15 05:15:57;;;;;;;7.23;3.90;;;;;;;;;;5093478;28;20422;-73
2021/06/15 05:18:23;;;;;;;6.53;4.00;;;;;;;;;;5095093;28;20418;-72
2021/06/15 05:20:50;;;;;;;6.40;3.73;;;;;;;;;;5095136;28;20507;-70
2021/06/15 05:23:19;;;;;;;6.53;4.00;;;;;;;;;;5095017;28;20423;-70
2021/06/15 05:25:47;;;;;;;6.47;3.63;;;;;;;;;;5095099;28;20478;-72
2021/06/15 05:28:13;;;;;;;7.20;4.30;;;;;;;;;;5100392;28;21042;-72
2021/06/15 05:30:39;;;;;;;6.03;3.70;;;;;;;;;;5100316;28;20884;-74
2021/06/15 05:33:06;;;;;;;5.53;3.67;;;;;;;;;;5102996;28;20411;-75
2021/06/15 05:35:31;;;;;;;6.50;3.57;;;;;;;;;;5115443;28;20410;-73
2021/06/15 05:37:58;;;;;;;6.33;3.17;;;;;;;;;;5115285;28;20424;-76
2021/06/15 05:40:24;;;;;;;7.30;3.30;;;;;;;;;;5109717;28;20453;-76
2021/06/15 05:42:50;;;;;;;6.20;3.00;;;;;;;;;;5114934;28;20925;-74
2021/06/15 05:45:16;;;;;;;8.17;3.43;;;;;;;;;;5114983;28;20449;-75
2021/06/15 05:47:44;;;;;;;10.50;3.30;;;;;;;;;;5114209;28;20449;-73
2021/06/15 05:50:11;;;;;;;9.60;4.00;;;;;;;;;;5100927;28;20416;-75
2021/06/15 05:52:37;;;;;;;5.87;3.10;;;;;;;;;;5114636;28;20427;-70
2021/06/15 05:55:03;;;;;;;9.37;3.60;;;;;;;;;;5099810;28;20399;-71
2021/06/15 05:57:30;;;;;;;6.53;2.70;;;;;;;;;;5094428;28;20548;-71
2021/06/15 05:59:57;;;;;;;7.90;3.20;;;;;;;;;;5094338;28;20415;-72
2021/06/15 06:02:23;;;;;;;6.13;3.30;;;;;;;;;;5094146;28;20839;-71
2021/06/15 06:10:09;;;;;;;8.17;3.17;;;;;;;;;;5094741;28;20470;-74
2021/06/15 06:12:36;;;;;;;12.67;3.57;;;;;;;;;;5090019;28;20431;-73
2021/06/15 06:15:03;;;;;;;6.70;3.10;;;;;;;;;;5090845;28;20406;-71
2021/06/15 06:17:29;;;;;;;5.33;3.27;;;;;;;;;;5105614;27;20461;-73
2021/06/15 06:19:55;;;;;;;7.77;3.00;;;;;;;;;;5092286;27;20409;-73
2021/06/15 06:22:22;;;;;;;6.60;3.07;;;;;;;;;;5089761;28;20948;-74
2021/06/15 06:24:49;;;;;;;5.50;2.90;;;;;;;;;;5090131;28;20983;-71
2021/06/15 06:27:15;;;;;;;6.60;2.77;;;;;;;;;;5089837;28;20985;-73
2021/06/15 06:29:41;;;;;;;6.70;3.30;;;;;;;;;;5104945;27;21360;-71
2021/06/15 06:32:08;;;;;;;4.57;2.73;;;;;;;;;;5096709;28;20479;-74
2021/06/15 06:34:34;;;;;;;5.37;2.50;;;;;;;;;;5088344;28;20459;-70
2021/06/15 06:37:00;;;;;;;10.17;2.83;;;;;;;;;;5089568;28;20424;-73
2021/06/15 06:39:26;;;;;;;4.80;2.60;;;;;;;;;;5089605;28;20421;-72
2021/06/15 06:41:52;;;;;;;8.60;3.40;;;;;;;;;;5101722;28;20500;-72
2021/06/15 06:44:18;;;;;;;7.10;2.80;;;;;;;;;;5089528;28;20507;-72
2021/06/15 06:46:44;;;;;;;5.67;2.93;;;;;;;;;;5089246;28;20551;-71
2021/06/15 06:49:10;;;;;;;5.17;2.43;;;;;;;;;;5089337;28;20424;-72
2021/06/15 06:51:36;;;;;;;7.60;3.10;;;;;;;;;;5089517;28;20494;-70
2021/06/15 06:54:02;;;;;;;15.03;2.70;;;;;;;;;;5100386;28;20421;-72
2021/06/15 06:56:29;;;;;;;6.33;2.63;;;;;;;;;;5089358;28;20622;-73
2021/06/15 06:58:55;;;;;;;4.70;2.20;;;;;;;;;;5102435;28;20909;-71
2021/06/15 07:01:21;;;;;;;6.77;2.60;;;;;;;;;;5089269;28;20426;-72
2021/06/15 07:03:48;;;;;;;5.37;2.77;;;;;;;;;;5089515;28;20981;-73
2021/06/15 07:06:15;;;;;;;6.97;2.23;;;;;;;;;;5101928;27;20438;-73
2021/06/15 07:08:41;;;;;;;6.17;2.77;;;;;;;;;;5089006;28;20460;-72
2021/06/15 07:11:07;;;;;;;5.23;2.30;;;;;;;;;;5089087;28;20433;-75
2021/06/15 07:13:33;;;;;;;8.93;3.10;;;;;;;;;;5095641;28;20408;-73
2021/06/15 07:15:59;;;;;;;5.13;2.63;;;;;;;;;;5109678;28;20419;-73
2021/06/15 07:18:25;;;;;;;5.63;2.30;;;;;;;;;;5108226;28;20434;-74
2021/06/15 07:20:51;;;;;;;5.60;2.50;;;;;;;;;;5095958;28;20410;-73
2021/06/15 07:23:17;;;;;;;5.80;2.50;;;;;;;;;;5090543;28;20449;-72
2021/06/15 07:25:43;;;;;;;4.10;2.33;;;;;;;;;;5095322;28;20550;-72
2021/06/15 07:28:09;;;;;;;6.57;2.40;;;;;;;;;;5098423;28;21309;-72
2021/06/15 07:30:35;;;;;;;7.47;2.90;;;;;;;;;;5099107;28;20409;-71
2021/06/15 07:33:01;;;;;;;6.37;2.80;;;;;;;;;;5092815;28;20433;-71
2021/06/15 07:35:28;;;;;;;6.30;2.60;;;;;;;;;;5091742;28;20906;-71
2021/06/15 07:37:54;;;;;;;5.33;2.50;;;;;;;;;;5100291;28;20462;-70
2021/06/15 07:40:24;;;;;;;6.33;2.47;;;;;;;;;;5099193;27;20421;-73
2021/06/15 07:42:59;;;;;;;9.23;2.20;;;;;;;;;;5093036;28;20437;-71
2021/06/15 07:45:29;;;;;;;4.80;2.17;;;;;;;;;;5091652;28;20999;-74
2021/06/15 07:47:56;;;;;;;4.50;2.33;;;;;;;;;;5100415;28;20475;-73
2021/06/15 07:50:22;;;;;;;6.87;4.50;;;;;;;;;;5096339;28;20413;-71
2021/06/15 07:52:48;;;;;;;6.23;2.63;;;;;;;;;;5092543;28;20441;-74
2021/06/15 07:55:15;;;;;;;6.20;2.83;;;;;;;;;;5093033;28;20413;-71
2021/06/15 07:57:41;;;;;;;5.03;2.00;;;;;;;;;;5092803;28;20425;-70
2021/06/15 08:00:08;;;;;;;4.90;2.20;;;;;;;;;;5092925;28;20421;-72
2021/06/15 08:02:34;;;;;;;5.07;2.30;;;;;;;;;;5092931;28;20498;-72
2021/06/15 08:05:00;;;;;;;6.67;2.60;;;;;;;;;;5092416;28;20500;-74
2021/06/15 08:07:26;;;;;;;7.47;2.40;;;;;;;;;;5108991;28;20939;-74
2021/06/15 08:09:52;;;;;;;6.10;2.77;;;;;;;;;;5112781;28;20408;-73
2021/06/15 08:12:20;;;;;;;5.00;2.40;;;;;;;;;;5107430;28;20429;-73
2021/06/15 08:14:46;;;;;;;7.17;2.50;;;;;;;;;;5092307;28;20410;-73
2021/06/15 08:17:12;;;;;;;4.23;2.80;;;;;;;;;;5092641;28;20413;-70
2021/06/15 08:19:38;;;;;;;8.40;3.17;;;;;;;;;;5092355;28;20497;-72
2021/06/15 08:22:04;;;;;;;6.80;2.47;;;;;;;;;;5092371;28;20586;-72
2021/06/15 08:24:30;;;;;;;3.73;2.13;;;;;;;;;;5092028;28;20899;-71
2021/06/15 08:26:56;;;;;;;3.67;2.30;;;;;;;;;;5092267;28;20862;-73
2021/06/15 08:29:22;;;;;;;4.33;2.10;;;;;;;;;;5103185;28;20914;-73
2021/06/15 08:31:49;;;;;;;4.07;1.80;;;;;;;;;;5103179;28;20755;-74
2021/06/15 08:34:15;;;;;;;6.80;2.43;;;;;;;;;;5103219;28;20417;-74
2021/06/15 08:36:41;;;;;;;3.50;2.13;;;;;;;;;;5091863;28;20517;-71
2021/06/15 08:39:08;;;;;;;3.90;2.00;;;;;;;;;;5091766;28;20414;-72
2021/06/15 08:41:35;;;;;;;6.60;2.20;;;;;;;;;;5102669;28;20797;-71
2021/06/15 08:44:02;;;;;;;9.20;2.63;;;;;;;;;;5094082;28;20418;-71
2021/06/15 08:46:28;;;;;;;4.33;2.20;;;;;;;;;;5091995;28;20895;-75
2021/06/15 08:48:55;;;;;;;5.23;1.93;;;;;;;;;;5091591;28;20410;-73
2021/06/15 08:51:21;;;;;;;3.83;2.00;;;;;;;;;;5091667;28;20790;-69
2021/06/15 08:53:51;;;;;;;8.87;2.13;;;;;;;;;;5091444;28;20418;-71
2021/06/15 08:56:19;;;;;;;4.90;2.53;;;;;;;;;;5092131;28;20417;-71
2021/06/15 08:58:48;;;;;;;7.03;2.20;;;;;;;;;;5091415;28;20446;-72
2021/06/15 09:01:14;;;;;;;4.43;2.40;;;;;;;;;;5091394;28;20443;-71
2021/06/15 09:03:40;;;;;;;4.03;1.97;;;;;;;;;;5091206;28;20415;-73
2021/06/15 09:06:06;;;;;;;4.27;2.10;;;;;;;;;;5096715;28;20833;-71
2021/06/15 09:08:32;;;;;;;3.67;2.20;;;;;;;;;;5111638;28;20460;-70
2021/06/15 09:11:04;;;;;;;4.93;2.53;;;;;;;;;;5111777;28;20428;-70
2021/06/15 09:13:40;;;;;;;3.80;2.20;;;;;;;;;;5095845;28;20452;-71
2021/06/15 09:16:20;;;;;;;4.90;2.30;;;;;;;;;;5091301;28;20459;-75
2021/06/15 09:18:46;;;;;;;5.07;2.00;;;;;;;;;;5091141;28;20420;-71
2021/06/15 09:21:12;;;;;;;3.30;1.90;;;;;;;;;;5091050;28;20529;-72
2021/06/15 09:23:39;;;;;;;6.53;2.70;;;;;;;;;;5091261;28;20476;-71
2021/06/15 09:26:07;;;;;;;5.20;2.60;;;;;;;;;;5090906;28;20774;-72
2021/06/15 09:28:33;;;;;;;4.93;2.27;;;;;;;;;;5099687;28;20466;-73
2021/06/15 09:31:03;;;;;;;3.67;2.27;;;;;;;;;;5093757;28;20433;-73
2021/06/15 09:33:42;;;;;;;3.30;2.50;;;;;;;;;;5090918;28;20417;-72
2021/06/15 09:36:26;;;;;;;3.63;2.00;;;;;;;;;;5091048;28;20413;-74
2021/06/15 09:38:56;;;;;;;4.20;2.43;;;;;;;;;;5091032;28;20484;-72
2021/06/15 09:41:36;;;;;;;4.70;2.30;;;;;;;;;;5099726;28;20450;-74
2021/06/15 09:44:17;;;;;;;7.70;2.10;;;;;;;;;;5093198;28;20444;-73
2021/06/15 09:46:44;;;;;;;3.00;2.10;;;;;;;;;;5090013;28;20504;-70
2021/06/15 09:49:12;;;;;;;7.27;2.40;;;;;;;;;;5090854;28;20409;-75
2021/06/15 09:51:40;;;;;;;6.67;2.13;;;;;;;;;;5090695;28;20448;-70
2021/06/15 09:54:06;;;;;;;4.23;1.97;;;;;;;;;;5090618;28;20470;-74
2021/06/15 09:56:32;;;;;;;4.83;2.50;;;;;;;;;;5090541;28;20413;-73
2021/06/15 09:58:59;;;;;;;4.00;1.80;;;;;;;;;;5090422;28;20416;-72
2021/06/15 10:01:30;;;;;;;4.27;1.90;;;;;;;;;;5090216;28;20437;-71
2021/06/15 10:04:08;;;;;;;4.73;2.00;;;;;;;;;;5090591;28;20420;-74
2021/06/15 10:06:34;;;;;;;5.47;2.90;;;;;;;;;;5099258;28;20424;-73
2021/06/15 10:09:00;;;;;;;4.57;2.53;;;;;;;;;;5110679;28;20415;-72
2021/06/15 10:11:26;;;;;;;4.67;2.30;;;;;;;;;;5110409;28;20444;-74
2021/06/15 10:13:53;;;;;;;4.40;2.10;;;;;;;;;;5091709;28;21107;-72
2021/06/15 10:16:19;;;;;;;3.07;1.90;;;;;;;;;;5090066;28;20417;-72
2021/06/15 10:18:45;;;;;;;3.93;2.00;;;;;;;;;;5089861;28;20414;-72
2021/06/15 10:21:11;;;;;;;5.17;2.17;;;;;;;;;;5089607;28;20490;-71
2021/06/15 10:23:37;;;;;;;3.30;1.87;;;;;;;;;;5089962;28;20500;-73
2021/06/15 10:26:06;;;;;;;5.33;2.57;;;;;;;;;;5089877;28;20413;-71
2021/06/15 10:28:32;;;;;;;4.77;2.33;;;;;;;;;;5098257;28;20464;-73
2021/06/15 10:31:04;;;;;;;5.93;2.27;;;;;;;;;;5103495;28;20630;-73
2021/06/15 10:33:43;;;;;;;4.23;2.33;;;;;;;;;;5092265;28;20445;-71
2021/06/15 10:36:10;;;;;;;4.73;2.60;;;;;;;;;;5089718;28;20466;-73
2021/06/15 10:38:40;;;;;;;5.73;2.23;;;;;;;;;;5089878;28;20413;-71
2021/06/15 10:41:07;;;;;;;3.73;2.50;;;;;;;;;;5096092;28;20439;-71
2021/06/15 10:43:36;;;;;;;3.60;2.47;;;;;;;;;;5089723;28;20801;-73
2021/06/15 10:46:05;;;;;;;2.73;2.00;;;;;;;;;;5088518;28;20460;-76
2021/06/15 10:48:34;;;;;;;3.47;2.10;;;;;;;;;;5089589;28;20476;-70
2021/06/15 10:51:01;;;;;;;4.13;2.07;;;;;;;;;;5089518;28;20437;-73
2021/06/15 10:53:34;;;;;;;3.60;1.90;;;;;;;;;;5089604;28;20575;-74
2021/06/15 10:56:03;;;;;;;4.20;2.20;;;;;;;;;;5093100;28;20884;-75
2021/06/15 10:58:32;;;;;;;2.43;1.90;;;;;;;;;;5099002;28;21283;-73
2021/06/15 11:01:16;;;;;;;3.60;2.00;;;;;;;;;;5089696;28;21021;-73
2021/06/15 11:03:53;;;;;;;3.47;2.37;;;;;;;;;;5089499;28;20500;-73
2021/06/15 11:06:20;;;;;;;3.73;2.40;;;;;;;;;;5096722;28;20430;-72
2021/06/15 11:08:47;;;;;;;4.53;2.40;;;;;;;;;;5108120;28;20488;-75
2021/06/15 11:11:15;;;;;;;4.57;2.70;;;;;;;;;;5109625;28;20600;-74
2021/06/15 11:13:46;;;;;;;4.77;2.57;;;;;;;;;;5101812;28;20448;-74
2021/06/15 11:16:31;;;;;;;5.20;2.70;;;;;;;;;;5089286;28;20436;-71
2021/06/15 11:19:12;;;;;;;3.30;2.13;;;;;;;;;;5089036;28;20405;-73
2021/06/15 11:21:53;;;;;;;4.53;2.07;;;;;;;;;;5089078;28;20439;-73
2021/06/15 11:24:25;;;;;;;5.37;2.60;;;;;;;;;;5089093;28;20458;-73
2021/06/15 11:26:53;;;;;;;4.73;2.40;;;;;;;;;;5101749;28;20423;-72
2021/06/15 11:29:36;;;;;;;3.73;2.00;;;;;;;;;;5102098;28;20427;-72
2021/06/15 11:32:25;;;;;;;4.73;2.30;;;;;;;;;;5109113;28;20991;-75
2021/06/15 11:37:20;;;;;;;3.30;2.37;;;;;;;;;;5109583;28;20447;-74
2021/06/15 11:39:47;;;;;;;5.00;2.13;;;;;;;;;;5100831;28;20755;-73
2021/06/15 11:42:19;;;;;;;4.87;2.30;;;;;;;;;;5095698;28;20505;-75
2021/06/15 11:45:02;;;;;;;3.63;2.20;;;;;;;;;;5087490;28;21036;-74
2021/06/15 11:47:52;;;;;;;3.00;2.27;;;;;;;;;;5088708;28;20463;-72
2021/06/15 11:50:28;;;;;;;3.60;2.47;;;;;;;;;;5092972;28;20424;-73
2021/06/15 11:52:58;;;;;;;3.80;2.13;;;;;;;;;;5088560;28;20482;-75
2021/06/15 11:55:29;;;;;;;3.23;2.40;;;;;;;;;;5089028;28;20409;-70
2021/06/15 11:57:59;;;;;;;3.53;2.20;;;;;;;;;;5088551;28;20413;-71
2021/06/15 12:00:25;;;;;;;2.97;2.10;;;;;;;;;;5089208;28;20500;-74
2021/06/15 12:03:00;;;;;;;3.50;2.10;;;;;;;;;;5088486;28;20433;-73
2021/06/15 12:05:26;;;;;;;6.07;2.20;;;;;;;;;;5089018;28;20413;-72
2021/06/15 12:07:53;;;;;;;3.70;2.40;;;;;;;;;;5122407;28;21165;-74
2021/06/15 12:10:21;;;;;;;2.80;2.00;;;;;;;;;;5096859;28;20424;-73
2021/06/15 12:13:01;;;;;;;2.73;2.00;;;;;;;;;;5100241;28;20442;-71
2021/06/15 12:15:37;;;;;;;2.50;1.90;;;;;;;;;;5112814;28;20443;-72
2021/06/15 12:18:04;;;;;;;4.17;2.20;;;;;;;;;;5112896;28;20422;-71
2021/06/15 12:20:33;;;;;;;3.00;2.00;;;;;;;;;;5112869;28;20769;-74
2021/06/15 12:23:02;;;;;;;2.90;1.90;;;;;;;;;;5101465;28;20926;-73
2021/06/15 12:25:30;;;;;;;2.83;1.90;;;;;;;;;;5110767;28;20427;-71
2021/06/15 12:28:15;;;;;;;4.77;2.50;;;;;;;;;;5112420;28;20486;-72
2021/06/15 12:30:41;;;;;;;3.30;1.90;;;;;;;;;;5100846;28;20848;-72
2021/06/15 12:33:08;;;;;;;2.53;1.70;;;;;;;;;;5109344;28;20965;-70
2021/06/15 12:35:35;;;;;;;3.70;2.07;;;;;;;;;;5090940;28;20926;-73
2021/06/15 12:38:14;;;;;;;3.53;2.10;;;;;;;;;;5092546;28;20428;-70
2021/06/15 12:40:41;;;;;;;4.03;1.97;;;;;;;;;;5099988;28;20964;-72
2021/06/15 12:43:08;;;;;;;3.70;1.73;;;;;;;;;;5094123;28;20413;-72
2021/06/15 12:45:35;;;;;;;3.33;1.70;;;;;;;;;;5091961;28;20417;-73
2021/06/15 12:48:02;;;;;;;4.63;1.90;;;;;;;;;;5091570;28;20461;-74
2021/06/15 12:50:29;;;;;;;3.70;2.33;;;;;;;;;;5091953;28;20766;-74
2021/06/15 12:53:05;;;;;;;4.37;2.00;;;;;;;;;;5091257;28;20789;-72
2021/06/15 12:55:31;;;;;;;3.30;1.87;;;;;;;;;;5091766;28;20510;-70
2021/06/15 12:57:59;;;;;;;2.70;1.67;;;;;;;;;;5091406;28;20478;-74
2021/06/15 13:00:25;;;;;;;4.70;1.80;;;;;;;;;;5091720;28;20425;-71
2021/06/15 13:02:51;;;;;;;3.57;1.80;;;;;;;;;;5091356;28;20441;-71
2021/06/15 13:05:19;;;;;;;3.73;2.10;;;;;;;;;;5091561;28;20421;-71
2021/06/15 13:07:55;;;;;;;3.50;1.77;;;;;;;;;;5110216;28;21247;-73
2021/06/15 13:10:22;;;;;;;2.97;1.93;;;;;;;;;;5111734;28;20404;-71
2021/06/15 13:12:51;;;;;;;3.10;2.00;;;;;;;;;;5101646;28;20433;-71
2021/06/15 13:15:20;;;;;;;3.07;1.80;;;;;;;;;;5091317;28;20505;-72
2021/06/15 13:17:57;;;;;;;4.27;1.80;;;;;;;;;;5091064;28;20470;-72
2021/06/15 13:20:23;;;;;;;2.90;2.00;;;;;;;;;;5091045;28;20853;-73
2021/06/15 13:22:50;;;;;;;2.57;1.67;;;;;;;;;;5091195;28;20837;-72
2021/06/15 13:25:17;;;;;;;2.60;1.57;;;;;;;;;;5091122;28;20975;-70
2021/06/15 13:27:50;;;;;;;4.20;1.97;;;;;;;;;;5092549;28;20465;-74
2021/06/15 13:30:22;;;;;;;5.73;2.20;;;;;;;;;;5103328;28;20515;-73
2021/06/15 13:33:10;;;;;;;4.07;1.87;;;;;;;;;;5091692;28;20433;-72
2021/06/15 13:35:43;;;;;;;3.77;1.90;;;;;;;;;;5091238;28;20499;-74
2021/06/15 13:38:11;;;;;;;3.50;1.80;;;;;;;;;;5090891;28;20466;-72
2021/06/15 13:40:44;;;;;;;6.93;2.00;;;;;;;;;;5095504;28;20502;-73
2021/06/15 13:43:16;;;;;;;6.00;3.47;;;;;;;;;;5096708;28;20413;-73
2021/06/15 13:45:43;;;;;;;11.40;10.23;;;;;;;;;;5090842;28;20414;-75
2021/06/15 13:48:12;;;;;;;3.63;2.30;;;;;;;;;;5090644;28;20497;-75
2021/06/15 13:50:40;;;;;;;6.33;3.53;;;;;;;;;;5090914;28;20410;-72
2021/06/15 13:53:06;;;;;;;11.23;5.73;;;;;;;;;;5090932;28;20449;-72
2021/06/15 13:55:32;;;;;;;4.77;2.40;;;;;;;;;;5090502;28;20450;-72
2021/06/15 13:57:59;;;;;;;10.07;3.30;;;;;;;;;;5090763;28;20419;-74
2021/06/15 14:00:27;;;;;;;4.53;2.50;;;;;;;;;;5089193;28;20481;-73
2021/06/15 14:02:53;;;;;;;6.73;3.90;;;;;;;;;;5090351;28;20460;-70
2021/06/15 14:05:20;;;;;;;4.80;2.07;;;;;;;;;;5090612;28;20425;-72
2021/06/15 14:07:46;;;;;;;4.70;2.13;;;;;;;;;;5109350;28;20479;-71
2021/06/15 14:10:13;;;;;;;5.77;2.10;;;;;;;;;;5110539;28;20437;-74
2021/06/15 14:12:40;;;;;;;3.30;1.90;;;;;;;;;;5101972;28;20436;-74
2021/06/15 14:15:06;;;;;;;7.00;2.73;;;;;;;;;;5090073;28;20433;-74
2021/06/15 14:17:33;;;;;;;4.67;2.10;;;;;;;;;;5090392;28;20436;-73
2021/06/15 14:19:59;;;;;;;3.50;2.57;;;;;;;;;;5089848;28;20414;-73
2021/06/15 14:22:25;;;;;;;5.70;2.00;;;;;;;;;;5090029;28;20433;-74
2021/06/15 14:24:52;;;;;;;4.23;2.50;;;;;;;;;;5090179;28;20430;-71
2021/06/15 14:27:20;;;;;;;5.77;2.10;;;;;;;;;;5089950;28;20871;-71
2021/06/15 14:29:46;;;;;;;4.10;2.40;;;;;;;;;;5101718;28;20444;-71
2021/06/15 14:32:12;;;;;;;6.60;2.70;;;;;;;;;;5105525;28;20857;-73
2021/06/15 14:34:38;;;;;;;5.80;2.10;;;;;;;;;;5089452;28;20445;-71
2021/06/15 14:37:05;;;;;;;4.57;2.30;;;;;;;;;;5089976;28;20453;-71
2021/06/15 14:39:31;;;;;;;4.43;2.13;;;;;;;;;;5089618;28;20414;-70
2021/06/15 14:41:57;;;;;;;5.43;2.10;;;;;;;;;;5090037;28;20446;-71
2021/06/15 14:44:23;;;;;;;7.63;2.73;;;;;;;;;;5089493;28;20417;-73
2021/06/15 14:46:49;;;;;;;3.83;2.00;;;;;;;;;;5089633;28;20555;-72
2021/06/15 14:49:15;;;;;;;4.63;2.63;;;;;;;;;;5089709;28;20844;-72
2021/06/15 14:51:41;;;;;;;4.93;2.63;;;;;;;;;;5089427;28;20451;-72
2021/06/15 14:54:07;;;;;;;4.07;2.43;;;;;;;;;;5089472;28;20463;-73